LNFTU ENZV-ENHD
Flight info
| Callsign | LNFTU |
|---|---|
| Flight time | 0h 15m |
| Altitude | 3500 |
| Route | FLATHOLMEN TUNGENES BOKN WEST |
| Aircraft | C210/L-SBDGRY/S |
Departure
| Time | 2026-05-06 18:35 |
|---|---|
| Airport | Stavanger Airport, Sola (ENZV) |
Arrival
| Time | 2026-05-06 18:50 |
|---|---|
| Airport | Haugesund Airport, Karmøy (ENHD) |
| Time | Latitude | Longitude | Altitude | Speed | Heading |
|---|---|---|---|---|---|
| 2026-05-06 18:18 | 58.89199 | 5.63284 | 21 ft | 0 kts | 270° |
| 2026-05-06 18:27 | 58.89192 | 5.63299 | 21 ft | 6 kts | 102° |
| 2026-05-06 18:27 | 58.89166 | 5.63359 | 20 ft | 2 kts | 214° |
| 2026-05-06 18:27 | 58.89150 | 5.63387 | 20 ft | 4 kts | 110° |
| 2026-05-06 18:27 | 58.89124 | 5.63406 | 21 ft | 5 kts | 147° |
| 2026-05-06 18:28 | 58.89053 | 5.63388 | 21 ft | 11 kts | 175° |
| 2026-05-06 18:28 | 58.88984 | 5.63411 | 23 ft | 8 kts | 181° |
| 2026-05-06 18:28 | 58.88947 | 5.63410 | 24 ft | 5 kts | 168° |
| 2026-05-06 18:28 | 58.88909 | 5.63416 | 25 ft | 8 kts | 163° |
| 2026-05-06 18:29 | 58.88807 | 5.63416 | 26 ft | 16 kts | 172° |
| 2026-05-06 18:29 | 58.88702 | 5.63431 | 27 ft | 14 kts | 181° |
| 2026-05-06 18:29 | 58.88642 | 5.63427 | 26 ft | 12 kts | 183° |
| 2026-05-06 18:29 | 58.88536 | 5.63424 | 26 ft | 11 kts | 181° |
| 2026-05-06 18:30 | 58.88482 | 5.63425 | 26 ft | 12 kts | 177° |
| 2026-05-06 18:30 | 58.88396 | 5.63426 | 26 ft | 13 kts | 181° |
| 2026-05-06 18:30 | 58.88258 | 5.63429 | 26 ft | 17 kts | 177° |
| 2026-05-06 18:30 | 58.88178 | 5.63431 | 25 ft | 18 kts | 180° |
| 2026-05-06 18:31 | 58.88054 | 5.63438 | 25 ft | 7 kts | 180° |
| 2026-05-06 18:31 | 58.88019 | 5.63422 | 26 ft | 9 kts | 220° |
| 2026-05-06 18:31 | 58.87947 | 5.63329 | 28 ft | 11 kts | 193° |
| 2026-05-06 18:31 | 58.87863 | 5.63298 | 26 ft | 14 kts | 191° |
| 2026-05-06 18:32 | 58.87772 | 5.63303 | 26 ft | 13 kts | 133° |
| 2026-05-06 18:32 | 58.87736 | 5.63460 | 27 ft | 14 kts | 110° |
| 2026-05-06 18:32 | 58.87695 | 5.63636 | 28 ft | 14 kts | 111° |
| 2026-05-06 18:32 | 58.87707 | 5.63781 | 28 ft | 0 kts | 0° |
| 2026-05-06 18:34 | 58.87851 | 5.63772 | 28 ft | 48 kts | 0° |
| 2026-05-06 18:34 | 58.88308 | 5.63755 | 140 ft | 76 kts | 354° |
| 2026-05-06 18:34 | 58.88832 | 5.63746 | 426 ft | 75 kts | 352° |
| 2026-05-06 18:34 | 58.89253 | 5.63111 | 561 ft | 90 kts | 306° |
| 2026-05-06 18:35 | 58.89548 | 5.62109 | 906 ft | 83 kts | 301° |
| 2026-05-06 18:35 | 58.89635 | 5.60830 | 980 ft | 106 kts | 287° |
| 2026-05-06 18:35 | 58.89932 | 5.59472 | 983 ft | 111 kts | 314° |
| 2026-05-06 18:35 | 58.90491 | 5.58413 | 1003 ft | 115 kts | 320° |
| 2026-05-06 18:36 | 58.91091 | 5.57356 | 1008 ft | 119 kts | 321° |
| 2026-05-06 18:36 | 58.91715 | 5.56306 | 1006 ft | 122 kts | 321° |
| 2026-05-06 18:36 | 58.92382 | 5.55284 | 995 ft | 121 kts | 332° |
| 2026-05-06 18:36 | 58.93218 | 5.55202 | 995 ft | 123 kts | 6° |
| 2026-05-06 18:37 | 58.94067 | 5.55452 | 999 ft | 125 kts | 4° |
| 2026-05-06 18:37 | 58.94930 | 5.55696 | 1005 ft | 125 kts | 5° |
| 2026-05-06 18:37 | 58.95801 | 5.55944 | 1010 ft | 126 kts | 5° |
| 2026-05-06 18:37 | 58.96655 | 5.56190 | 1007 ft | 125 kts | 5° |
| 2026-05-06 18:38 | 58.97518 | 5.56438 | 1004 ft | 125 kts | 5° |
| 2026-05-06 18:38 | 58.98355 | 5.56680 | 1177 ft | 116 kts | 5° |
| 2026-05-06 18:38 | 58.99189 | 5.56917 | 1438 ft | 128 kts | 5° |
| 2026-05-06 18:38 | 59.00110 | 5.57180 | 1704 ft | 138 kts | 5° |
| 2026-05-06 18:39 | 59.01074 | 5.57461 | 1975 ft | 144 kts | 6° |
| 2026-05-06 18:39 | 59.02114 | 5.57760 | 2015 ft | 158 kts | 6° |
| 2026-05-06 18:39 | 59.03231 | 5.58018 | 2001 ft | 162 kts | 358° |
| 2026-05-06 18:40 | 59.05172 | 5.55843 | 2006 ft | 167 kts | 322° |
| 2026-05-06 18:40 | 59.06092 | 5.54438 | 2009 ft | 169 kts | 323° |
| 2026-05-06 18:40 | 59.07029 | 5.53017 | 2014 ft | 170 kts | 323° |
| 2026-05-06 18:40 | 59.07950 | 5.51619 | 2013 ft | 170 kts | 323° |
| 2026-05-06 18:41 | 59.08887 | 5.50194 | 2016 ft | 170 kts | 323° |
| 2026-05-06 18:41 | 59.09822 | 5.48774 | 2018 ft | 170 kts | 323° |
| 2026-05-06 18:41 | 59.10744 | 5.47371 | 2018 ft | 170 kts | 323° |
| 2026-05-06 18:41 | 59.11680 | 5.45945 | 2020 ft | 170 kts | 323° |
| 2026-05-06 18:42 | 59.12613 | 5.44524 | 2015 ft | 170 kts | 323° |
| 2026-05-06 18:42 | 59.13534 | 5.43119 | 2016 ft | 170 kts | 323° |
| 2026-05-06 18:42 | 59.14468 | 5.41694 | 2017 ft | 170 kts | 323° |
| 2026-05-06 18:42 | 59.15394 | 5.40279 | 1746 ft | 162 kts | 323° |
| 2026-05-06 18:43 | 59.16255 | 5.38920 | 1363 ft | 142 kts | 322° |
| 2026-05-06 18:43 | 59.17024 | 5.37613 | 637 ft | 153 kts | 319° |
| 2026-05-06 18:43 | 59.17940 | 5.36833 | 725 ft | 127 kts | 338° |
| 2026-05-06 18:43 | 59.18661 | 5.36246 | 1144 ft | 113 kts | 335° |
| 2026-05-06 18:44 | 59.19431 | 5.35682 | 1010 ft | 126 kts | 348° |
| 2026-05-06 18:44 | 59.20339 | 5.35708 | 813 ft | 133 kts | 354° |
| 2026-05-06 18:44 | 59.21241 | 5.35273 | 791 ft | 131 kts | 341° |
| 2026-05-06 18:44 | 59.22067 | 5.34762 | 972 ft | 121 kts | 340° |
| 2026-05-06 18:45 | 59.22873 | 5.34242 | 1013 ft | 124 kts | 340° |
| 2026-05-06 18:45 | 59.23703 | 5.33700 | 1015 ft | 126 kts | 340° |
| 2026-05-06 18:45 | 59.24533 | 5.33153 | 1015 ft | 125 kts | 341° |
| 2026-05-06 18:45 | 59.25357 | 5.32610 | 1014 ft | 126 kts | 341° |
| 2026-05-06 18:46 | 59.26187 | 5.32062 | 1016 ft | 124 kts | 340° |
| 2026-05-06 18:46 | 59.27015 | 5.31514 | 1022 ft | 127 kts | 340° |
| 2026-05-06 18:46 | 59.27852 | 5.30961 | 1025 ft | 128 kts | 340° |
| 2026-05-06 18:46 | 59.28690 | 5.30408 | 1016 ft | 119 kts | 341° |
| 2026-05-06 18:47 | 59.29353 | 5.29970 | 1000 ft | 84 kts | 340° |
| 2026-05-06 18:47 | 59.29896 | 5.29608 | 1012 ft | 84 kts | 340° |
| 2026-05-06 18:47 | 59.30393 | 5.29130 | 1011 ft | 80 kts | 319° |
| 2026-05-06 18:47 | 59.30771 | 5.28358 | 1012 ft | 77 kts | 316° |
| 2026-05-06 18:48 | 59.31132 | 5.27618 | 975 ft | 76 kts | 313° |
| 2026-05-06 18:48 | 59.31497 | 5.26849 | 882 ft | 80 kts | 315° |
| 2026-05-06 18:48 | 59.31901 | 5.26072 | 717 ft | 85 kts | 318° |
| 2026-05-06 18:48 | 59.32310 | 5.25300 | 575 ft | 78 kts | 313° |
| 2026-05-06 18:49 | 59.32682 | 5.24545 | 426 ft | 77 kts | 315° |
| 2026-05-06 18:49 | 59.33050 | 5.23818 | 339 ft | 75 kts | 308° |
| 2026-05-06 18:49 | 59.33395 | 5.23083 | 240 ft | 74 kts | 315° |
| 2026-05-06 18:49 | 59.33768 | 5.22359 | 121 ft | 75 kts | 313° |
| 2026-05-06 18:50 | 59.34073 | 5.21742 | 87 ft | 42 kts | 315° |
| 2026-05-06 18:50 | 59.34190 | 5.21525 | 83 ft | 19 kts | 316° |
| 2026-05-06 18:50 | 59.34288 | 5.21517 | 82 ft | 15 kts | 44° |
| 2026-05-06 18:50 | 59.34306 | 5.21554 | 82 ft | 0 kts | 44° |
| 2026-05-06 18:51 | 59.34323 | 5.21584 | 81 ft | 5 kts | 39° |
| 2026-05-06 18:51 | 59.34379 | 5.21558 | 81 ft | 14 kts | 313° |
| 2026-05-06 18:51 | 59.34446 | 5.21426 | 82 ft | 13 kts | 324° |
| 2026-05-06 18:52 | 59.34482 | 5.21357 | 79 ft | 3 kts | 301° |
| 2026-05-06 18:52 | 59.34485 | 5.21334 | 74 ft | 0 kts | 281° |